Time,TemperatureF,DewpointF,PressureIn,WindDirection,WindDirectionDegrees,WindSpeedMPH,WindSpeedGustMPH,Humidity,HourlyPrecipIn,Conditions,Clouds,dailyrainin,SoftwareType,DateUTC
2013-10-27 00:01:00,48.0,37.9,29.33,West,270,0.0,0.0,68,0.00,CLR,OVC,0.00,WeatherDisplay:10.37,2013-10-27 04:01:00,
2013-10-27 00:02:00,48.0,37.9,29.33,West,270,0.0,0.0,68,0.00,CLR,OVC,0.00,WeatherDisplay:10.37,2013-10-27 04:02:00,
2013-10-27 00:07:00,47.0,37.0,29.33,West,270,0.0,0.0,68,0.00,CLR,OVC,0.00,WeatherDisplay:10.37,2013-10-27 04:07:00,
2013-10-27 00:12:00,47.0,37.0,29.32,West,270,0.0,0.0,68,0.00,CLR,OVC,0.00,WeatherDisplay:10.37,2013-10-27 04:12:00,
2013-10-27 00:17:00,47.0,37.0,29.32,West,270,0.0,0.0,68,0.00,CLR,OVC,0.00,WeatherDisplay:10.37,2013-10-27 04:17:00,
2013-10-27 00:22:00,47.0,37.4,29.33,West,270,0.0,0.0,69,0.00,CLR,OVC,0.00,WeatherDisplay:10.37,2013-10-27 04:22:00,
2013-10-27 00:27:00,47.0,37.7,29.33,West,270,0.0,0.0,70,0.00,CLR,OVC,0.00,WeatherDisplay:10.37,2013-10-27 04:27:00,
2013-10-27 00:32:00,47.0,38.1,29.32,West,270,0.0,0.0,71,0.00,CLR,OVC,0.00,WeatherDisplay:10.37,2013-10-27 04:32:00,
2013-10-27 00:37:00,47.0,38.4,29.32,West,270,0.0,0.0,72,0.00,CLR,OVC,0.00,WeatherDisplay:10.37,2013-10-27 04:37:00,
2013-10-27 00:42:00,47.0,38.4,29.32,West,270,0.0,0.0,72,0.00,CLR,OVC,0.00,WeatherDisplay:10.37,2013-10-27 04:42:00,
2013-10-27 00:47:00,47.0,38.4,29.32,West,270,0.0,0.0,72,0.00,CLR,OVC,0.00,WeatherDisplay:10.37,2013-10-27 04:47:00,
2013-10-27 00:52:00,47.0,38.4,29.31,West,270,0.0,0.0,72,0.00,CLR,OVC,0.00,WeatherDisplay:10.37,2013-10-27 04:52:00,
2013-10-27 00:57:00,47.0,38.1,29.31,West,270,0.0,0.0,71,0.00,CLR,OVC,0.00,WeatherDisplay:10.37,2013-10-27 04:57:00,
2013-10-27 01:02:00,47.0,38.4,29.32,West,270,0.0,0.0,72,0.00,CLR,OVC,0.00,WeatherDisplay:10.37,2013-10-27 05:02:00,
2013-10-27 01:07:00,47.0,38.4,29.32,West,270,0.0,0.0,72,0.00,CLR,OVC,0.00,WeatherDisplay:10.37,2013-10-27 05:07:00,
2013-10-27 01:12:00,47.0,38.4,29.31,West,270,0.0,0.0,72,0.00,CLR,OVC,0.00,WeatherDisplay:10.37,2013-10-27 05:12:00,
2013-10-27 01:17:00,47.0,38.4,29.31,West,270,0.0,0.0,72,0.00,CLR,OVC,0.00,WeatherDisplay:10.37,2013-10-27 05:17:00,
2013-10-27 01:22:00,47.0,38.1,29.32,NNW,337,0.0,0.0,71,0.00,CLR,OVC,0.00,WeatherDisplay:10.37,2013-10-27 05:22:00,
2013-10-27 01:27:00,47.0,37.7,29.32,WNW,292,0.0,0.0,70,0.00,CLR,OVC,0.00,WeatherDisplay:10.37,2013-10-27 05:27:00,
2013-10-27 01:32:00,47.0,37.7,29.32,WNW,292,0.0,0.0,70,0.00,CLR,OVC,0.00,WeatherDisplay:10.37,2013-10-27 05:32:00,
2013-10-27 01:37:00,47.0,38.1,29.32,WNW,292,0.0,0.0,71,0.00,CLR,OVC,0.00,WeatherDisplay:10.37,2013-10-27 05:37:00,
2013-10-27 01:42:00,47.0,37.4,29.32,WNW,292,0.0,0.0,69,0.00,CLR,OVC,0.00,WeatherDisplay:10.37,2013-10-27 05:42:00,
2013-10-27 01:47:00,46.0,36.8,29.32,WSW,247,0.0,0.0,70,0.00,CLR,OVC,0.00,WeatherDisplay:10.37,2013-10-27 05:47:00,
2013-10-27 01:52:00,46.0,37.5,29.32,WSW,247,0.0,0.0,72,0.00,CLR,OVC,0.00,WeatherDisplay:10.37,2013-10-27 05:52:00,
2013-10-27 01:57:00,46.0,38.2,29.32,WSW,247,0.0,0.0,74,0.00,CLR,OVC,0.00,WeatherDisplay:10.37,2013-10-27 05:57:00,
2013-10-27 02:02:00,46.0,38.9,29.32,WSW,247,0.0,0.0,76,0.00,CLR,OVC,0.00,WeatherDisplay:10.37,2013-10-27 06:02:00,
2013-10-27 02:07:00,45.0,37.9,29.32,WSW,247,0.0,0.0,76,0.00,CLR,OVC,0.00,WeatherDisplay:10.37,2013-10-27 06:07:00,
2013-10-27 02:12:00,45.0,37.9,29.32,WSW,247,0.0,0.0,76,0.00,CLR,OVC,0.00,WeatherDisplay:10.37,2013-10-27 06:12:00,
2013-10-27 02:17:00,45.0,37.9,29.32,WSW,247,0.0,0.0,76,0.00,CLR,OVC,0.00,WeatherDisplay:10.37,2013-10-27 06:17:00,
2013-10-27 02:22:00,45.0,36.9,29.33,West,270,0.0,0.0,73,0.00,CLR,OVC,0.00,WeatherDisplay:10.37,2013-10-27 06:22:00,
2013-10-27 02:27:00,46.0,37.8,29.33,West,270,0.0,0.0,73,0.00,CLR,OVC,0.00,WeatherDisplay:10.37,2013-10-27 06:27:00,
2013-10-27 02:32:00,46.0,37.5,29.32,West,270,0.0,0.0,72,0.00,CLR,OVC,0.00,WeatherDisplay:10.37,2013-10-27 06:32:00,
2013-10-27 02:37:00,46.0,37.5,29.32,West,270,0.0,0.0,72,0.00,CLR,OVC,0.00,WeatherDisplay:10.37,2013-10-27 06:37:00,
2013-10-27 02:42:00,46.0,37.5,29.32,West,270,0.0,0.0,72,0.00,CLR,OVC,0.00,WeatherDisplay:10.37,2013-10-27 06:42:00,
2013-10-27 02:47:00,46.0,37.1,29.32,West,270,0.0,0.0,71,0.00,CLR,OVC,0.00,WeatherDisplay:10.37,2013-10-27 06:47:00,
2013-10-27 02:52:00,46.0,37.5,29.32,West,270,0.0,0.0,72,0.00,CLR,OVC,0.00,WeatherDisplay:10.37,2013-10-27 06:52:00,
2013-10-27 02:57:00,46.0,38.2,29.32,West,270,0.0,0.0,74,0.00,CLR,OVC,0.00,WeatherDisplay:10.37,2013-10-27 06:57:00,
2013-10-27 03:02:00,46.0,38.2,29.32,West,270,0.0,0.0,74,0.00,CLR,OVC,0.00,WeatherDisplay:10.37,2013-10-27 07:02:00,
2013-10-27 03:08:00,46.0,37.8,29.32,West,270,0.0,0.0,73,0.00,CLR,OVC,0.00,WeatherDisplay:10.37,2013-10-27 07:08:00,
2013-10-27 03:13:00,46.0,37.5,29.31,West,270,0.0,0.0,72,0.00,CLR,OVC,0.00,WeatherDisplay:10.37,2013-10-27 07:13:00,
2013-10-27 03:18:00,46.0,37.5,29.31,West,270,0.0,0.0,72,0.00,CLR,OVC,0.00,WeatherDisplay:10.37,2013-10-27 07:18:00,
2013-10-27 03:23:00,46.0,37.5,29.31,SW,225,0.0,0.0,72,0.00,CLR,OVC,0.00,WeatherDisplay:10.37,2013-10-27 07:23:00,
2013-10-27 03:28:00,46.0,37.5,29.31,SW,225,0.0,0.0,72,0.00,CLR,OVC,0.00,WeatherDisplay:10.37,2013-10-27 07:28:00,
2013-10-27 03:33:00,46.0,37.8,29.31,SW,225,0.0,0.0,73,0.00,CLR,OVC,0.00,WeatherDisplay:10.37,2013-10-27 07:33:00,
2013-10-27 03:38:00,45.0,37.2,29.31,SW,225,0.0,0.0,74,0.00,CLR,OVC,0.00,WeatherDisplay:10.37,2013-10-27 07:38:00,
2013-10-27 03:43:00,45.0,37.6,29.32,SW,225,0.0,0.0,75,0.00,CLR,OVC,0.00,WeatherDisplay:10.37,2013-10-27 07:43:00,
2013-10-27 03:48:00,45.0,37.6,29.32,WNW,292,1.2,0.0,75,0.00,CLR,OVC,0.00,WeatherDisplay:10.37,2013-10-27 07:48:00,
2013-10-27 03:53:00,45.0,37.6,29.32,WNW,292,0.0,0.0,75,0.00,CLR,OVC,0.00,WeatherDisplay:10.37,2013-10-27 07:53:00,
2013-10-27 03:58:00,45.0,37.9,29.32,WNW,292,0.0,0.0,76,0.00,CLR,OVC,0.00,WeatherDisplay:10.37,2013-10-27 07:58:00,
2013-10-27 04:03:00,45.0,38.6,29.31,WNW,292,0.0,0.0,78,0.00,CLR,OVC,0.00,WeatherDisplay:10.37,2013-10-27 08:03:00,
2013-10-27 04:08:00,45.0,38.9,29.31,SW,225,0.0,0.0,79,0.00,CLR,OVC,0.00,WeatherDisplay:10.37,2013-10-27 08:08:00,
2013-10-27 04:13:00,44.0,37.6,29.31,SW,225,0.0,0.0,78,0.00,CLR,OVC,0.00,WeatherDisplay:10.37,2013-10-27 08:13:00,
2013-10-27 04:18:00,44.0,37.9,29.31,SW,225,0.0,0.0,79,0.00,CLR,OVC,0.00,WeatherDisplay:10.37,2013-10-27 08:18:00,
2013-10-27 04:23:00,44.0,38.5,29.31,SW,225,0.0,0.0,81,0.00,CLR,OVC,0.00,WeatherDisplay:10.37,2013-10-27 08:23:00,
2013-10-27 04:28:00,44.0,38.5,29.31,SW,225,0.0,0.0,81,0.00,CLR,OVC,0.00,WeatherDisplay:10.37,2013-10-27 08:28:00,
2013-10-27 04:33:00,44.0,38.9,29.31,SW,225,0.0,0.0,82,0.00,CLR,OVC,0.00,WeatherDisplay:10.37,2013-10-27 08:33:00,
2013-10-27 04:38:00,44.0,38.9,29.31,SW,225,0.0,0.0,82,0.00,CLR,OVC,0.00,WeatherDisplay:10.37,2013-10-27 08:38:00,
2013-10-27 04:43:00,44.0,38.5,29.31,SW,225,0.0,0.0,81,0.00,CLR,OVC,0.00,WeatherDisplay:10.37,2013-10-27 08:43:00,
2013-10-27 04:48:00,44.0,38.5,29.31,SW,225,0.0,0.0,81,0.00,CLR,OVC,0.00,WeatherDisplay:10.37,2013-10-27 08:48:00,
2013-10-27 04:53:00,44.0,38.5,29.31,SW,225,0.0,0.0,81,0.00,CLR,OVC,0.00,WeatherDisplay:10.37,2013-10-27 08:53:00,
2013-10-27 04:58:00,44.0,38.9,29.31,SW,225,0.0,0.0,82,0.00,CLR,OVC,0.00,WeatherDisplay:10.37,2013-10-27 08:58:00,
2013-10-27 05:03:00,44.0,38.9,29.31,SW,225,0.0,0.0,82,0.00,CLR,OVC,0.00,WeatherDisplay:10.37,2013-10-27 09:03:00,
2013-10-27 05:08:00,44.0,39.2,29.31,SW,225,0.0,0.0,83,0.00,CLR,OVC,0.00,WeatherDisplay:10.37,2013-10-27 09:08:00,
2013-10-27 05:13:00,44.0,38.9,29.31,WSW,247,0.0,0.0,82,0.00,CLR,OVC,0.00,WeatherDisplay:10.37,2013-10-27 09:13:00,
2013-10-27 05:18:00,44.0,38.5,29.31,NW,315,0.0,0.0,81,0.00,CLR,OVC,0.00,WeatherDisplay:10.37,2013-10-27 09:18:00,
2013-10-27 05:23:00,44.0,38.9,29.31,NW,315,0.0,0.0,82,0.00,CLR,OVC,0.00,WeatherDisplay:10.37,2013-10-27 09:23:00,
2013-10-27 05:28:00,44.0,39.2,29.31,WSW,247,0.0,0.0,83,0.00,CLR,OVC,0.00,WeatherDisplay:10.37,2013-10-27 09:28:00,
2013-10-27 05:33:00,44.0,39.2,29.32,NW,315,0.0,0.0,83,0.00,CLR,OVC,0.00,WeatherDisplay:10.37,2013-10-27 09:33:00,
2013-10-27 05:38:00,44.0,38.9,29.32,SSW,202,0.0,0.0,82,0.00,CLR,OVC,0.00,WeatherDisplay:10.37,2013-10-27 09:38:00,
2013-10-27 05:43:00,44.0,38.9,29.32,NW,315,0.0,0.0,82,0.00,CLR,OVC,0.00,WeatherDisplay:10.37,2013-10-27 09:43:00,
2013-10-27 05:48:00,44.0,38.9,29.32,NW,315,0.0,0.0,82,0.00,CLR,OVC,0.00,WeatherDisplay:10.37,2013-10-27 09:48:00,
2013-10-27 05:53:00,44.0,39.2,29.32,West,270,0.0,0.0,83,0.00,CLR,OVC,0.00,WeatherDisplay:10.37,2013-10-27 09:53:00,
2013-10-27 05:58:00,44.0,38.9,29.32,West,270,0.0,0.0,82,0.00,CLR,OVC,0.00,WeatherDisplay:10.37,2013-10-27 09:58:00,
2013-10-27 06:03:00,44.0,39.5,29.32,NW,315,0.0,0.0,84,0.00,CLR,OVC,0.00,WeatherDisplay:10.37,2013-10-27 10:03:00,
2013-10-27 06:08:00,44.0,39.2,29.32,WNW,292,0.0,0.0,83,0.00,CLR,OVC,0.00,WeatherDisplay:10.37,2013-10-27 10:08:00,
2013-10-27 06:13:00,44.0,39.5,29.32,West,270,0.0,0.0,84,0.00,CLR,OVC,0.00,WeatherDisplay:10.37,2013-10-27 10:13:00,
2013-10-27 06:18:00,44.0,38.9,29.32,WNW,292,0.0,0.0,82,0.00,CLR,OVC,0.00,WeatherDisplay:10.37,2013-10-27 10:18:00,
2013-10-27 06:23:00,44.0,38.9,29.32,West,270,0.0,0.0,82,0.00,CLR,OVC,0.00,WeatherDisplay:10.37,2013-10-27 10:23:00,
2013-10-27 06:28:00,44.0,39.2,29.32,West,270,0.0,0.0,83,0.00,CLR,OVC,0.00,WeatherDisplay:10.37,2013-10-27 10:28:00,
2013-10-27 06:33:00,44.0,39.5,29.33,ESE,112,0.0,0.0,84,0.00,CLR,OVC,0.00,WeatherDisplay:10.37,2013-10-27 10:33:00,
2013-10-27 06:38:00,43.0,38.5,29.33,ESE,112,0.0,0.0,84,0.00,CLR,OVC,0.00,WeatherDisplay:10.37,2013-10-27 10:38:00,
2013-10-27 06:43:00,43.0,38.5,29.33,WNW,292,0.0,0.0,84,0.00,CLR,OVC,0.00,WeatherDisplay:10.37,2013-10-27 10:43:00,
2013-10-27 06:48:00,43.0,38.8,29.33,NW,315,0.0,0.0,85,0.00,CLR,OVC,0.00,WeatherDisplay:10.37,2013-10-27 10:48:00,
2013-10-27 06:53:00,43.0,39.1,29.33,NW,315,0.0,0.0,86,0.00,CLR,OVC,0.00,WeatherDisplay:10.37,2013-10-27 10:53:00,
2013-10-27 06:58:00,43.0,38.5,29.33,NW,315,1.2,1.2,84,0.00,CLR,OVC,0.00,WeatherDisplay:10.37,2013-10-27 10:58:00,
2013-10-27 07:03:00,43.0,38.5,29.33,West,270,0.0,0.0,84,0.00,CLR,OVC,0.00,WeatherDisplay:10.37,2013-10-27 11:03:00,
2013-10-27 07:08:00,44.0,38.9,29.33,NW,315,0.0,0.2,82,0.00,CLR,OVC,0.00,WeatherDisplay:10.37,2013-10-27 11:08:00,
2013-10-27 07:13:00,44.0,39.2,29.33,WNW,292,0.0,0.0,83,0.00,CLR,OVC,0.00,WeatherDisplay:10.37,2013-10-27 11:13:00,
2013-10-27 07:18:00,43.0,38.5,29.33,WNW,292,0.0,0.0,84,0.00,CLR,OVC,0.00,WeatherDisplay:10.37,2013-10-27 11:18:00,
2013-10-27 07:23:00,43.0,37.9,29.34,NW,315,2.3,2.3,82,0.00,CLR,OVC,0.00,WeatherDisplay:10.37,2013-10-27 11:23:00,
2013-10-27 07:28:00,44.0,38.9,29.34,NW,315,0.0,0.0,82,0.00,CLR,OVC,0.00,WeatherDisplay:10.37,2013-10-27 11:28:00,
2013-10-27 07:33:00,44.0,38.9,29.33,WNW,292,0.0,0.1,82,0.00,CLR,OVC,0.00,WeatherDisplay:10.37,2013-10-27 11:33:00,
2013-10-27 07:38:00,44.0,38.9,29.33,NW,315,0.0,0.0,82,0.00,CLR,OVC,0.00,WeatherDisplay:10.37,2013-10-27 11:38:00,
2013-10-27 07:43:00,44.0,38.9,29.34,WSW,247,0.0,0.0,82,0.00,CLR,OVC,0.00,WeatherDisplay:10.37,2013-10-27 11:43:00,
2013-10-27 07:48:00,44.0,38.5,29.34,WNW,292,0.0,0.0,81,0.00,CLR,OVC,0.00,WeatherDisplay:10.37,2013-10-27 11:48:00,
2013-10-27 07:53:00,44.0,38.9,29.34,SSW,202,0.0,0.0,82,0.00,CLR,OVC,0.00,WeatherDisplay:10.37,2013-10-27 11:53:00,
2013-10-27 07:58:00,44.0,39.2,29.34,SSW,202,0.0,0.0,83,0.00,CLR,OVC,0.00,WeatherDisplay:10.37,2013-10-27 11:58:00,
2013-10-27 08:04:00,43.0,38.2,29.35,NNW,337,0.0,0.0,83,0.00,CLR,OVC,0.00,WeatherDisplay:10.37,2013-10-27 12:04:00,
2013-10-27 08:09:00,43.0,38.5,29.35,NW,315,0.0,0.0,84,0.00,CLR,OVC,0.00,WeatherDisplay:10.37,2013-10-27 12:09:00,
2013-10-27 08:14:00,44.0,39.5,29.35,SSE,157,0.0,0.0,84,0.00,CLR,OVC,0.00,WeatherDisplay:10.37,2013-10-27 12:14:00,
2013-10-27 08:19:00,44.0,39.5,29.35,SE,135,0.0,0.0,84,0.00,CLR,OVC,0.00,WeatherDisplay:10.37,2013-10-27 12:19:00,
2013-10-27 08:24:00,44.0,39.2,29.36,SE,135,0.0,0.0,83,0.00,CLR,OVC,0.00,WeatherDisplay:10.37,2013-10-27 12:24:00,
2013-10-27 08:29:00,44.0,38.9,29.36,WSW,247,0.0,0.0,82,0.00,CLR,OVC,0.00,WeatherDisplay:10.37,2013-10-27 12:29:00,
2013-10-27 08:31:00,44.0,38.9,29.36,NW,315,1.2,1.2,82,0.00,CLR,OVC,0.00,WeatherDisplay:10.37,2013-10-27 12:31:00,
2013-10-27 08:36:00,44.0,39.2,29.36,East,90,0.0,0.0,83,0.00,CLR,OVC,0.00,WeatherDisplay:10.37,2013-10-27 12:36:00,
2013-10-27 08:41:00,45.0,39.8,29.36,SE,135,0.0,0.0,82,0.00,CLR,OVC,0.00,WeatherDisplay:10.37,2013-10-27 12:41:00,
2013-10-27 08:46:00,45.0,39.8,29.36,SE,135,0.0,0.0,82,0.00,CLR,OVC,0.00,WeatherDisplay:10.37,2013-10-27 12:46:00,
2013-10-27 08:51:00,45.0,39.5,29.36,WNW,292,0.0,0.0,81,0.00,CLR,OVC,0.00,WeatherDisplay:10.37,2013-10-27 12:51:00,
2013-10-27 08:56:00,46.0,40.5,29.36,WNW,292,0.0,0.0,81,0.00,CLR,OVC,0.00,WeatherDisplay:10.37,2013-10-27 12:56:00,
2013-10-27 09:01:00,46.0,39.9,29.38,West,270,0.0,0.0,79,0.00,CLR,OVC,0.00,WeatherDisplay:10.37,2013-10-27 13:01:00,
2013-10-27 09:06:00,47.0,40.8,29.38,ESE,112,0.0,0.0,79,0.00,CLR,OVC,0.00,WeatherDisplay:10.37,2013-10-27 13:06:00,
2013-10-27 09:11:00,48.0,41.1,29.37,North,360,1.2,1.2,77,0.00,CLR,OVC,0.00,WeatherDisplay:10.37,2013-10-27 13:11:00,
2013-10-27 09:16:00,49.0,41.8,29.37,East,90,0.0,0.0,76,0.00,CLR,OVC,0.00,WeatherDisplay:10.37,2013-10-27 13:16:00,
2013-10-27 09:21:00,50.0,41.3,29.37,East,90,0.0,0.0,72,0.00,CLR,OVC,0.00,WeatherDisplay:10.37,2013-10-27 13:21:00,
2013-10-27 09:26:00,52.0,42.1,29.37,East,90,0.0,0.0,69,0.00,CLR,OVC,0.00,WeatherDisplay:10.37,2013-10-27 13:26:00,
2013-10-27 09:31:00,53.0,42.7,29.38,WNW,292,0.0,0.0,68,0.00,CLR,OVC,0.00,WeatherDisplay:10.37,2013-10-27 13:31:00,
2013-10-27 09:36:00,54.0,42.9,29.38,South,180,0.0,0.0,66,0.00,CLR,OVC,0.00,WeatherDisplay:10.37,2013-10-27 13:36:00,
2013-10-27 09:41:00,55.0,43.0,29.38,SSE,157,0.0,0.0,64,0.00,CLR,OVC,0.00,WeatherDisplay:10.37,2013-10-27 13:41:00,
2013-10-27 09:46:00,56.0,43.2,29.38,West,270,0.0,0.0,62,0.00,CLR,OVC,0.00,WeatherDisplay:10.37,2013-10-27 13:46:00,
2013-10-27 09:51:00,57.0,43.7,29.38,SW,225,1.2,1.2,61,0.00,CLR,OVC,0.00,WeatherDisplay:10.37,2013-10-27 13:51:00,
2013-10-27 09:56:00,58.0,43.7,29.38,West,270,3.5,3.5,59,0.00,CLR,OVC,0.00,WeatherDisplay:10.37,2013-10-27 13:56:00,
2013-10-27 10:01:00,58.0,42.8,29.38,NW,315,0.0,0.0,57,0.00,CLR,OVC,0.00,WeatherDisplay:10.37,2013-10-27 14:01:00,
2013-10-27 10:06:00,59.0,43.3,29.38,NW,315,2.3,2.3,56,0.00,CLR,OVC,0.00,WeatherDisplay:10.37,2013-10-27 14:06:00,
2013-10-27 10:11:00,59.0,43.3,29.38,WNW,292,4.0,4.0,56,0.00,CLR,OVC,0.00,WeatherDisplay:10.37,2013-10-27 14:11:00,
2013-10-27 10:16:00,58.0,41.9,29.38,WSW,247,3.5,3.5,55,0.00,CLR,OVC,0.00,WeatherDisplay:10.37,2013-10-27 14:16:00,
2013-10-27 10:21:00,59.0,42.4,29.38,NW,315,0.0,0.0,54,0.00,CLR,OVC,0.00,WeatherDisplay:10.37,2013-10-27 14:21:00,
2013-10-27 10:26:00,59.0,42.8,29.38,NW,315,3.5,3.5,55,0.00,CLR,OVC,0.00,WeatherDisplay:10.37,2013-10-27 14:26:00,
2013-10-27 10:31:00,58.0,41.4,29.38,West,270,3.5,3.5,54,0.00,CLR,OVC,0.00,WeatherDisplay:10.37,2013-10-27 14:31:00,
2013-10-27 10:36:00,58.0,41.0,29.38,NNW,337,4.6,4.6,53,0.00,CLR,OVC,0.00,WeatherDisplay:10.37,2013-10-27 14:36:00,
2013-10-27 10:41:00,59.0,41.9,29.38,SW,225,3.5,3.5,53,0.00,CLR,OVC,0.00,WeatherDisplay:10.37,2013-10-27 14:41:00,
2013-10-27 10:46:00,60.0,42.3,29.38,NE,45,3.5,0.0,52,0.00,CLR,OVC,0.00,WeatherDisplay:10.37,2013-10-27 14:46:00,
2013-10-27 10:51:00,60.0,41.8,29.37,WSW,247,3.5,3.5,51,0.00,CLR,OVC,0.00,WeatherDisplay:10.37,2013-10-27 14:51:00,
2013-10-27 10:56:00,61.0,42.7,29.37,WNW,292,3.5,3.5,51,0.00,CLR,OVC,0.00,WeatherDisplay:10.37,2013-10-27 14:56:00,
2013-10-27 11:01:00,61.0,42.7,29.37,NW,315,3.0,3.0,51,0.00,CLR,OVC,0.00,WeatherDisplay:10.37,2013-10-27 15:01:00,
2013-10-27 11:06:00,62.0,42.6,29.37,West,270,1.2,1.2,49,0.00,CLR,OVC,0.00,WeatherDisplay:10.37,2013-10-27 15:06:00,
2013-10-27 11:11:00,62.0,41.5,29.37,West,270,0.0,0.0,47,0.00,CLR,OVC,0.00,WeatherDisplay:10.37,2013-10-27 15:11:00,
2013-10-27 11:16:00,61.0,41.7,29.37,NW,315,3.5,3.5,49,0.00,CLR,OVC,0.00,WeatherDisplay:10.37,2013-10-27 15:16:00,
2013-10-27 11:21:00,61.0,40.1,29.38,NE,45,2.3,0.0,46,0.00,CLR,OVC,0.00,WeatherDisplay:10.37,2013-10-27 15:21:00,
2013-10-27 11:26:00,62.0,41.5,29.38,WNW,292,3.5,3.5,47,0.00,CLR,OVC,0.00,WeatherDisplay:10.37,2013-10-27 15:26:00,
2013-10-27 11:31:00,62.0,40.4,29.37,NW,315,2.3,2.3,45,0.00,CLR,OVC,0.00,WeatherDisplay:10.37,2013-10-27 15:31:00,
2013-10-27 11:36:00,62.0,39.8,29.37,WNW,292,3.5,3.5,44,0.00,CLR,OVC,0.00,WeatherDisplay:10.37,2013-10-27 15:36:00,
2013-10-27 11:41:00,63.0,40.7,29.37,NNW,337,3.5,3.5,44,0.00,CLR,OVC,0.00,WeatherDisplay:10.37,2013-10-27 15:41:00,
2013-10-27 11:46:00,63.0,40.7,29.37,NE,45,1.2,1.2,44,0.00,CLR,OVC,0.00,WeatherDisplay:10.37,2013-10-27 15:46:00,
2013-10-27 11:51:00,63.0,40.7,29.37,ENE,67,1.2,1.2,44,0.00,CLR,OVC,0.00,WeatherDisplay:10.37,2013-10-27 15:51:00,
2013-10-27 11:56:00,62.0,39.8,29.37,WNW,292,8.1,8.1,44,0.00,CLR,OVC,0.00,WeatherDisplay:10.37,2013-10-27 15:56:00,
2013-10-27 12:01:00,62.0,39.8,29.37,NNW,337,3.5,3.5,44,0.00,CLR,OVC,0.00,WeatherDisplay:10.37,2013-10-27 16:01:00,
2013-10-27 12:06:00,62.0,39.8,29.37,NW,315,3.5,3.5,44,0.00,CLR,OVC,0.00,WeatherDisplay:10.37,2013-10-27 16:06:00,
2013-10-27 12:11:00,62.0,39.2,29.36,NW,315,4.0,4.0,43,0.00,CLR,OVC,0.00,WeatherDisplay:10.37,2013-10-27 16:11:00,
2013-10-27 12:16:00,62.0,38.6,29.36,North,360,4.6,4.6,42,0.00,CLR,OVC,0.00,WeatherDisplay:10.37,2013-10-27 16:16:00,
2013-10-27 12:21:00,63.0,39.5,29.35,South,180,2.3,2.3,42,0.00,CLR,OVC,0.00,WeatherDisplay:10.37,2013-10-27 16:21:00,
2013-10-27 12:26:00,64.0,40.4,29.35,East,90,0.0,0.0,42,0.00,CLR,OVC,0.00,WeatherDisplay:10.37,2013-10-27 16:26:00,
2013-10-27 12:31:00,65.0,40.1,29.35,West,270,3.5,3.5,40,0.00,CLR,OVC,0.00,WeatherDisplay:10.37,2013-10-27 16:31:00,
2013-10-27 12:37:00,65.0,39.4,29.35,ESE,112,3.5,3.5,39,0.00,CLR,OVC,0.00,WeatherDisplay:10.37,2013-10-27 16:37:00,
2013-10-27 12:42:00,65.0,40.7,29.35,North,360,3.5,3.5,41,0.00,CLR,OVC,0.00,WeatherDisplay:10.37,2013-10-27 16:42:00,
2013-10-27 12:47:00,66.0,40.3,29.35,ENE,67,2.3,0.0,39,0.00,CLR,OVC,0.00,WeatherDisplay:10.37,2013-10-27 16:47:00,
2013-10-27 12:52:00,67.0,40.5,29.34,SSE,157,0.0,0.5,38,0.00,CLR,OVC,0.00,WeatherDisplay:10.37,2013-10-27 16:52:00,
2013-10-27 12:57:00,67.0,39.9,29.34,NW,315,3.0,3.1,37,0.00,CLR,OVC,0.00,WeatherDisplay:10.37,2013-10-27 16:57:00,
2013-10-27 13:02:00,66.0,40.3,29.34,North,360,3.5,3.5,39,0.00,CLR,OVC,0.00,WeatherDisplay:10.37,2013-10-27 17:02:00,
2013-10-27 13:07:00,66.0,39.7,29.34,East,90,2.3,0.0,38,0.00,CLR,OVC,0.00,WeatherDisplay:10.37,2013-10-27 17:07:00,
2013-10-27 13:12:00,67.0,40.5,29.33,East,90,0.0,0.3,38,0.00,CLR,OVC,0.00,WeatherDisplay:10.37,2013-10-27 17:12:00,
2013-10-27 13:17:00,66.0,40.3,29.33,WSW,247,2.0,2.0,39,0.00,CLR,OVC,0.00,WeatherDisplay:10.37,2013-10-27 17:17:00,
2013-10-27 13:22:00,65.0,40.1,29.33,WNW,292,4.6,4.6,40,0.00,CLR,OVC,0.00,WeatherDisplay:10.37,2013-10-27 17:22:00,
2013-10-27 13:27:00,64.0,39.2,29.33,NNW,337,2.3,0.0,40,0.00,CLR,OVC,0.00,WeatherDisplay:10.37,2013-10-27 17:27:00,
2013-10-27 13:32:00,64.0,39.8,29.32,West,270,0.0,0.0,41,0.00,CLR,OVC,0.00,WeatherDisplay:10.37,2013-10-27 17:32:00,
2013-10-27 13:37:00,65.0,40.1,29.32,NNW,337,3.5,3.5,40,0.00,CLR,OVC,0.00,WeatherDisplay:10.37,2013-10-27 17:37:00,
2013-10-27 13:42:00,65.0,39.4,29.32,NW,315,5.8,5.8,39,0.00,CLR,OVC,0.00,WeatherDisplay:10.37,2013-10-27 17:42:00,
2013-10-27 13:47:00,66.0,40.3,29.32,NW,315,3.5,3.5,39,0.00,CLR,OVC,0.00,WeatherDisplay:10.37,2013-10-27 17:47:00,
2013-10-27 13:52:00,66.0,41.0,29.32,West,270,0.0,0.0,40,0.00,CLR,OVC,0.00,WeatherDisplay:10.37,2013-10-27 17:52:00,
2013-10-27 13:57:00,64.0,39.2,29.32,West,270,3.5,3.5,40,0.00,CLR,OVC,0.00,WeatherDisplay:10.37,2013-10-27 17:57:00,
2013-10-27 14:02:00,64.0,39.2,29.32,West,270,2.3,2.3,40,0.00,CLR,OVC,0.00,WeatherDisplay:10.37,2013-10-27 18:02:00,
2013-10-27 14:07:00,64.0,39.2,29.32,WSW,247,5.8,5.8,40,0.00,CLR,OVC,0.00,WeatherDisplay:10.37,2013-10-27 18:07:00,
2013-10-27 14:12:00,64.0,39.2,29.32,West,270,3.5,3.5,40,0.00,CLR,OVC,0.00,WeatherDisplay:10.37,2013-10-27 18:12:00,
2013-10-27 14:17:00,64.0,39.2,29.32,NNE,22,3.5,3.5,40,0.00,CLR,OVC,0.00,WeatherDisplay:10.37,2013-10-27 18:17:00,
2013-10-27 14:22:00,65.0,39.4,29.31,NNW,337,4.6,4.6,39,0.00,CLR,OVC,0.00,WeatherDisplay:10.37,2013-10-27 18:22:00,
2013-10-27 14:27:00,65.0,40.1,29.31,WNW,292,2.3,0.0,40,0.00,CLR,OVC,0.00,WeatherDisplay:10.37,2013-10-27 18:27:00,
2013-10-27 14:32:00,66.0,40.3,29.31,West,270,2.3,2.3,39,0.00,CLR,OVC,0.00,WeatherDisplay:10.37,2013-10-27 18:32:00,
2013-10-27 14:37:00,67.0,40.5,29.31,NW,315,3.5,3.5,38,0.00,CLR,OVC,0.00,WeatherDisplay:10.37,2013-10-27 18:37:00,
2013-10-27 14:42:00,67.0,39.9,29.31,WSW,247,4.0,4.0,37,0.00,CLR,OVC,0.00,WeatherDisplay:10.37,2013-10-27 18:42:00,
2013-10-27 14:47:00,66.0,40.3,29.31,WNW,292,0.0,0.0,39,0.00,CLR,OVC,0.00,WeatherDisplay:10.37,2013-10-27 18:47:00,
2013-10-27 14:52:00,67.0,40.5,29.32,ESE,112,0.0,0.0,38,0.00,CLR,OVC,0.00,WeatherDisplay:10.37,2013-10-27 18:52:00,
2013-10-27 14:57:00,67.0,39.9,29.32,NW,315,2.0,2.0,37,0.00,CLR,OVC,0.00,WeatherDisplay:10.37,2013-10-27 18:57:00,
2013-10-27 15:02:00,67.0,39.9,29.31,NW,315,3.5,3.5,37,0.00,CLR,OVC,0.00,WeatherDisplay:10.37,2013-10-27 19:02:00,
2013-10-27 15:07:00,66.0,39.0,29.31,West,270,3.5,3.5,37,0.00,CLR,OVC,0.00,WeatherDisplay:10.37,2013-10-27 19:07:00,
2013-10-27 15:12:00,67.0,39.9,29.31,SSE,157,0.0,0.0,37,0.00,CLR,OVC,0.00,WeatherDisplay:10.37,2013-10-27 19:12:00,
2013-10-27 15:17:00,68.0,40.0,29.31,South,180,0.0,0.0,36,0.00,CLR,OVC,0.00,WeatherDisplay:10.37,2013-10-27 19:17:00,
2013-10-27 15:22:00,67.0,39.1,29.30,West,270,8.0,8.0,36,0.00,CLR,OVC,0.00,WeatherDisplay:10.37,2013-10-27 19:22:00,
2013-10-27 15:27:00,67.0,39.1,29.30,WNW,292,4.0,4.0,36,0.00,CLR,OVC,0.00,WeatherDisplay:10.37,2013-10-27 19:27:00,
2013-10-27 15:32:00,67.0,39.1,29.31,NW,315,3.5,3.5,36,0.00,CLR,OVC,0.00,WeatherDisplay:10.37,2013-10-27 19:32:00,
2013-10-27 15:37:00,68.0,40.7,29.31,NW,315,1.0,1.0,37,0.00,CLR,OVC,0.00,WeatherDisplay:10.37,2013-10-27 19:37:00,
2013-10-27 15:42:00,67.0,38.4,29.31,NW,315,2.3,2.3,35,0.00,CLR,OVC,0.00,WeatherDisplay:10.37,2013-10-27 19:42:00,
2013-10-27 15:47:00,68.0,39.3,29.31,West,270,2.0,2.0,35,0.00,CLR,OVC,0.00,WeatherDisplay:10.37,2013-10-27 19:47:00,
2013-10-27 15:52:00,67.0,38.4,29.31,West,270,2.3,2.3,35,0.00,CLR,OVC,0.00,WeatherDisplay:10.37,2013-10-27 19:52:00,
2013-10-27 15:57:00,66.0,38.3,29.31,West,270,4.6,4.6,36,0.00,CLR,OVC,0.00,WeatherDisplay:10.37,2013-10-27 19:57:00,
2013-10-27 16:02:00,66.0,37.5,29.32,NNW,337,3.5,3.5,35,0.00,CLR,OVC,0.00,WeatherDisplay:10.37,2013-10-27 20:02:00,
2013-10-27 16:07:00,67.0,39.9,29.32,WSW,247,1.2,0.0,37,0.00,CLR,OVC,0.00,WeatherDisplay:10.37,2013-10-27 20:07:00,
2013-10-27 16:12:00,67.0,39.1,29.31,WSW,247,1.0,0.0,36,0.00,CLR,OVC,0.00,WeatherDisplay:10.37,2013-10-27 20:12:00,
2013-10-27 16:17:00,66.0,39.0,29.31,NNW,337,0.0,0.0,37,0.00,CLR,OVC,0.00,WeatherDisplay:10.37,2013-10-27 20:17:00,
2013-10-27 16:23:00,66.0,39.0,29.31,NW,315,5.0,5.0,37,0.00,CLR,OVC,0.00,WeatherDisplay:10.37,2013-10-27 20:23:00,
2013-10-27 16:28:00,65.0,39.4,29.31,West,270,3.5,3.5,39,0.00,CLR,OVC,0.00,WeatherDisplay:10.37,2013-10-27 20:28:00,
2013-10-27 16:33:00,65.0,39.4,29.31,WNW,292,3.5,3.5,39,0.00,CLR,OVC,0.00,WeatherDisplay:10.37,2013-10-27 20:33:00,
2013-10-27 16:38:00,64.0,38.5,29.31,West,270,4.6,4.6,39,0.00,CLR,OVC,0.00,WeatherDisplay:10.37,2013-10-27 20:38:00,
2013-10-27 16:43:00,65.0,40.1,29.30,WNW,292,0.0,0.0,40,0.00,CLR,OVC,0.00,WeatherDisplay:10.37,2013-10-27 20:43:00,
2013-10-27 16:48:00,64.0,39.2,29.30,SW,225,3.5,3.5,40,0.00,CLR,OVC,0.00,WeatherDisplay:10.37,2013-10-27 20:48:00,
2013-10-27 16:53:00,64.0,39.2,29.30,SW,225,0.0,0.0,40,0.00,CLR,OVC,0.00,WeatherDisplay:10.37,2013-10-27 20:53:00,
2013-10-27 16:58:00,64.0,39.8,29.30,WNW,292,1.2,1.2,41,0.00,CLR,OVC,0.00,WeatherDisplay:10.37,2013-10-27 20:58:00,
2013-10-27 17:03:00,63.0,39.5,29.30,NW,315,1.2,1.2,42,0.00,CLR,OVC,0.00,WeatherDisplay:10.37,2013-10-27 21:03:00,
2013-10-27 17:08:00,63.0,39.5,29.30,West,270,1.2,1.2,42,0.00,CLR,OVC,0.00,WeatherDisplay:10.37,2013-10-27 21:08:00,
2013-10-27 17:13:00,63.0,40.7,29.30,NW,315,0.0,0.0,44,0.00,CLR,OVC,0.00,WeatherDisplay:10.37,2013-10-27 21:13:00,
2013-10-27 17:18:00,63.0,40.7,29.30,West,270,0.0,0.0,44,0.00,CLR,OVC,0.00,WeatherDisplay:10.37,2013-10-27 21:18:00,
2013-10-27 17:23:00,62.0,39.8,29.30,WNW,292,0.0,0.0,44,0.00,CLR,OVC,0.00,WeatherDisplay:10.37,2013-10-27 21:23:00,
2013-10-27 17:28:00,62.0,40.4,29.30,WNW,292,0.0,0.0,45,0.00,CLR,OVC,0.00,WeatherDisplay:10.37,2013-10-27 21:28:00,
2013-10-27 17:33:00,62.0,41.5,29.30,WNW,292,0.0,0.0,47,0.00,CLR,OVC,0.00,WeatherDisplay:10.37,2013-10-27 21:33:00,
2013-10-27 17:38:00,61.0,41.2,29.30,WNW,292,0.0,0.0,48,0.00,CLR,OVC,0.00,WeatherDisplay:10.37,2013-10-27 21:38:00,
2013-10-27 17:43:00,60.0,40.8,29.31,WNW,292,0.0,0.0,49,0.00,CLR,OVC,0.00,WeatherDisplay:10.37,2013-10-27 21:43:00,
2013-10-27 17:48:00,60.0,41.3,29.31,WNW,292,0.0,0.0,50,0.00,CLR,OVC,0.00,WeatherDisplay:10.37,2013-10-27 21:48:00,
2013-10-27 17:53:00,59.0,40.4,29.31,WNW,292,0.0,0.0,50,0.00,CLR,OVC,0.00,WeatherDisplay:10.37,2013-10-27 21:53:00,
2013-10-27 17:58:00,58.0,39.5,29.31,WNW,292,0.0,0.0,50,0.00,CLR,OVC,0.00,WeatherDisplay:10.37,2013-10-27 21:58:00,
2013-10-27 18:03:00,58.0,40.0,29.31,WNW,292,0.0,0.0,51,0.00,CLR,OVC,0.00,WeatherDisplay:10.37,2013-10-27 22:03:00,
2013-10-27 18:08:00,57.0,40.5,29.31,WNW,292,0.0,0.0,54,0.00,CLR,OVC,0.00,WeatherDisplay:10.37,2013-10-27 22:08:00,
2013-10-27 18:13:00,56.0,39.6,29.31,WNW,292,0.0,0.0,54,0.00,CLR,OVC,0.00,WeatherDisplay:10.37,2013-10-27 22:13:00,
2013-10-27 18:18:00,56.0,41.0,29.31,WNW,292,0.0,0.0,57,0.00,CLR,OVC,0.00,WeatherDisplay:10.37,2013-10-27 22:18:00,
2013-10-27 18:23:00,55.0,40.0,29.32,WNW,292,0.0,0.0,57,0.00,CLR,OVC,0.00,WeatherDisplay:10.37,2013-10-27 22:23:00,
2013-10-27 18:28:00,55.0,40.0,29.32,WNW,292,0.0,0.0,57,0.00,CLR,OVC,0.00,WeatherDisplay:10.37,2013-10-27 22:28:00,
2013-10-27 18:33:00,54.0,39.5,29.32,WNW,292,0.0,0.0,58,0.00,CLR,OVC,0.00,WeatherDisplay:10.37,2013-10-27 22:33:00,
2013-10-27 18:38:00,53.0,39.0,29.32,WNW,292,0.0,0.0,59,0.00,CLR,OVC,0.00,WeatherDisplay:10.37,2013-10-27 22:38:00,
2013-10-27 18:43:00,53.0,40.3,29.33,WNW,292,0.0,0.0,62,0.00,CLR,OVC,0.00,WeatherDisplay:10.37,2013-10-27 22:43:00,
2013-10-27 18:48:00,53.0,40.7,29.33,WNW,292,0.0,0.0,63,0.00,CLR,OVC,0.00,WeatherDisplay:10.37,2013-10-27 22:48:00,
2013-10-27 18:53:00,52.0,40.6,29.33,WNW,292,0.0,0.0,65,0.00,CLR,OVC,0.00,WeatherDisplay:10.37,2013-10-27 22:53:00,
2013-10-27 18:58:00,52.0,40.6,29.33,WNW,292,0.0,0.0,65,0.00,CLR,OVC,0.00,WeatherDisplay:10.37,2013-10-27 22:58:00,
2013-10-27 19:03:00,52.0,40.6,29.33,WNW,292,0.0,0.0,65,0.00,CLR,OVC,0.00,WeatherDisplay:10.37,2013-10-27 23:03:00,
2013-10-27 19:08:00,52.0,40.6,29.33,WNW,292,0.0,0.0,65,0.00,CLR,OVC,0.00,WeatherDisplay:10.37,2013-10-27 23:08:00,
2013-10-27 19:13:00,51.0,40.4,29.33,WNW,292,0.0,0.0,67,0.00,CLR,OVC,0.00,WeatherDisplay:10.37,2013-10-27 23:13:00,
2013-10-27 19:18:00,51.0,40.8,29.33,WNW,292,0.0,0.0,68,0.00,CLR,OVC,0.00,WeatherDisplay:10.37,2013-10-27 23:18:00,
2013-10-27 19:23:00,51.0,41.9,29.34,WNW,292,0.0,0.0,71,0.00,CLR,OVC,0.00,WeatherDisplay:10.37,2013-10-27 23:23:00,
2013-10-27 19:28:00,50.0,41.7,29.34,WNW,292,0.0,0.0,73,0.00,CLR,OVC,0.00,WeatherDisplay:10.37,2013-10-27 23:28:00,
2013-10-27 19:34:00,50.0,41.3,29.34,WNW,292,0.0,0.0,72,0.00,CLR,OVC,0.00,WeatherDisplay:10.37,2013-10-27 23:34:00,
2013-10-27 19:39:00,49.0,40.7,29.34,WNW,292,0.0,0.0,73,0.00,CLR,OVC,0.00,WeatherDisplay:10.37,2013-10-27 23:39:00,
2013-10-27 19:44:00,49.0,41.1,29.35,WNW,292,0.0,0.0,74,0.00,CLR,OVC,0.00,WeatherDisplay:10.37,2013-10-27 23:44:00,
2013-10-27 19:49:00,49.0,41.1,29.35,WNW,292,0.0,0.0,74,0.00,CLR,OVC,0.00,WeatherDisplay:10.37,2013-10-27 23:49:00,
2013-10-27 19:54:00,49.0,41.4,29.35,WNW,292,0.0,0.0,75,0.00,CLR,OVC,0.00,WeatherDisplay:10.37,2013-10-27 23:54:00,
2013-10-27 19:59:00,49.0,41.4,29.35,WNW,292,0.0,0.0,75,0.00,CLR,OVC,0.00,WeatherDisplay:10.37,2013-10-27 23:59:00,
2013-10-27 20:04:00,49.0,41.1,29.35,WNW,292,0.0,0.0,74,0.00,CLR,OVC,0.00,WeatherDisplay:10.37,2013-10-28 00:04:00,
2013-10-27 20:09:00,49.0,41.8,29.35,WNW,292,0.0,0.0,76,0.00,CLR,OVC,0.00,WeatherDisplay:10.37,2013-10-28 00:09:00,
2013-10-27 20:14:00,48.0,41.1,29.35,WNW,292,0.0,0.0,77,0.00,CLR,OVC,0.00,WeatherDisplay:10.37,2013-10-28 00:14:00,
2013-10-27 20:19:00,48.0,41.1,29.35,WNW,292,0.0,0.0,77,0.00,CLR,OVC,0.00,WeatherDisplay:10.37,2013-10-28 00:19:00,
2013-10-27 20:24:00,48.0,41.1,29.36,WNW,292,0.0,0.0,77,0.00,CLR,OVC,0.00,WeatherDisplay:10.37,2013-10-28 00:24:00,
2013-10-27 20:29:00,48.0,41.5,29.36,WNW,292,0.0,0.0,78,0.00,CLR,OVC,0.00,WeatherDisplay:10.37,2013-10-28 00:29:00,
2013-10-27 20:34:00,48.0,41.8,29.36,WNW,292,0.0,0.0,79,0.00,CLR,OVC,0.00,WeatherDisplay:10.37,2013-10-28 00:34:00,
2013-10-27 20:39:00,48.0,41.8,29.36,WNW,292,0.0,0.0,79,0.00,CLR,OVC,0.00,WeatherDisplay:10.37,2013-10-28 00:39:00,
2013-10-27 20:44:00,47.0,40.8,29.36,WNW,292,0.0,0.0,79,0.00,CLR,OVC,0.00,WeatherDisplay:10.37,2013-10-28 00:44:00,
2013-10-27 20:49:00,47.0,41.1,29.36,WNW,292,0.0,0.0,80,0.00,CLR,OVC,0.00,WeatherDisplay:10.37,2013-10-28 00:49:00,
2013-10-27 20:54:00,47.0,41.5,29.36,WNW,292,0.0,0.0,81,0.00,CLR,OVC,0.00,WeatherDisplay:10.37,2013-10-28 00:54:00,
2013-10-27 20:59:00,47.0,41.5,29.36,WNW,292,0.0,0.0,81,0.00,CLR,OVC,0.00,WeatherDisplay:10.37,2013-10-28 00:59:00,
2013-10-27 21:04:00,47.0,41.8,29.36,WNW,292,0.0,0.0,82,0.00,CLR,OVC,0.00,WeatherDisplay:10.37,2013-10-28 01:04:00,
2013-10-27 21:09:00,47.0,42.1,29.36,WNW,292,0.0,0.0,83,0.00,CLR,OVC,0.00,WeatherDisplay:10.37,2013-10-28 01:09:00,
2013-10-27 21:14:00,47.0,42.1,29.36,WNW,292,0.0,0.0,83,0.00,CLR,OVC,0.00,WeatherDisplay:10.37,2013-10-28 01:14:00,
2013-10-27 21:19:00,47.0,42.4,29.36,WNW,292,0.0,0.0,84,0.00,CLR,OVC,0.00,WeatherDisplay:10.37,2013-10-28 01:19:00,
2013-10-27 21:24:00,46.0,42.0,29.36,WNW,292,0.0,0.0,86,0.00,CLR,OVC,0.00,WeatherDisplay:10.37,2013-10-28 01:24:00,
2013-10-27 21:29:00,46.0,41.7,29.36,WNW,292,0.0,0.0,85,0.00,CLR,OVC,0.00,WeatherDisplay:10.37,2013-10-28 01:29:00,
2013-10-27 21:34:00,46.0,42.3,29.37,WNW,292,0.0,0.0,87,0.00,CLR,OVC,0.00,WeatherDisplay:10.37,2013-10-28 01:34:00,
2013-10-27 21:39:00,46.0,43.2,29.37,WNW,292,0.0,0.0,90,0.00,CLR,OVC,0.00,WeatherDisplay:10.37,2013-10-28 01:39:00,
2013-10-27 21:44:00,45.0,42.5,29.37,WNW,292,0.0,0.0,91,0.00,CLR,OVC,0.00,WeatherDisplay:10.37,2013-10-28 01:44:00,
2013-10-27 21:49:00,45.0,42.8,29.37,WNW,292,0.0,0.0,92,0.00,CLR,OVC,0.00,WeatherDisplay:10.37,2013-10-28 01:49:00,
2013-10-27 21:54:00,45.0,43.1,29.38,WNW,292,0.0,0.0,93,0.00,CLR,OVC,0.00,WeatherDisplay:10.37,2013-10-28 01:54:00,
2013-10-27 21:59:00,46.0,44.4,29.38,WNW,292,0.0,0.0,94,0.00,CLR,OVC,0.00,WeatherDisplay:10.37,2013-10-28 01:59:00,
2013-10-27 22:04:00,46.0,44.4,29.38,WNW,292,0.0,0.0,94,0.00,CLR,OVC,0.00,WeatherDisplay:10.37,2013-10-28 02:04:00,
2013-10-27 22:09:00,46.0,44.1,29.38,WNW,292,0.0,0.0,93,0.00,CLR,OVC,0.00,WeatherDisplay:10.37,2013-10-28 02:09:00,
2013-10-27 22:15:00,46.0,43.8,29.39,WNW,292,0.0,0.0,92,0.00,CLR,OVC,0.00,WeatherDisplay:10.37,2013-10-28 02:15:00,
2013-10-27 22:20:00,46.0,44.4,29.39,WNW,292,0.0,0.0,94,0.00,CLR,OVC,0.00,WeatherDisplay:10.37,2013-10-28 02:20:00,
2013-10-27 22:25:00,46.0,44.4,29.39,WNW,292,0.0,0.0,94,0.00,CLR,OVC,0.00,WeatherDisplay:10.37,2013-10-28 02:25:00,
2013-10-27 22:30:00,46.0,44.6,29.39,WNW,292,0.0,0.0,95,0.00,CLR,OVC,0.00,WeatherDisplay:10.37,2013-10-28 02:30:00,
2013-10-27 22:35:00,46.0,44.9,29.39,WNW,292,0.0,0.0,96,0.00,CLR,OVC,0.00,WeatherDisplay:10.37,2013-10-28 02:35:00,
2013-10-27 22:40:00,46.0,44.9,29.39,WNW,292,0.0,0.0,96,0.00,CLR,OVC,0.00,WeatherDisplay:10.37,2013-10-28 02:40:00,
2013-10-27 22:45:00,46.0,44.9,29.39,WNW,292,0.0,0.0,96,0.00,CLR,OVC,0.00,WeatherDisplay:10.37,2013-10-28 02:45:00,
2013-10-27 22:50:00,46.0,44.9,29.39,WNW,292,0.0,0.0,96,0.00,CLR,OVC,0.00,WeatherDisplay:10.37,2013-10-28 02:50:00,
2013-10-27 22:55:00,45.0,44.2,29.39,WNW,292,0.0,0.0,97,0.00,CLR,OVC,0.00,WeatherDisplay:10.37,2013-10-28 02:55:00,
2013-10-27 23:00:00,46.0,45.7,29.39,WNW,292,0.0,0.0,99,0.00,CLR,OVC,0.00,WeatherDisplay:10.37,2013-10-28 03:00:00,
2013-10-27 23:05:00,45.0,44.7,29.39,WNW,292,0.0,0.0,99,0.00,CLR,OVC,0.00,WeatherDisplay:10.37,2013-10-28 03:05:00,
2013-10-27 23:10:00,45.0,44.7,29.39,WNW,292,0.0,0.0,99,0.00,,OVC,0.00,WeatherDisplay:10.37,2013-10-28 03:10:00,
2013-10-27 23:15:00,45.0,45.0,29.39,WNW,292,0.0,0.0,100,0.00,,OVC,0.00,WeatherDisplay:10.37,2013-10-28 03:15:00,
2013-10-27 23:20:00,45.0,45.0,29.39,WNW,292,0.0,0.0,100,0.00,,OVC,0.00,WeatherDisplay:10.37,2013-10-28 03:20:00,
2013-10-27 23:25:00,45.0,45.0,29.39,WNW,292,0.0,0.0,100,0.00,,OVC,0.00,WeatherDisplay:10.37,2013-10-28 03:25:00,
2013-10-27 23:30:00,45.0,45.0,29.39,WNW,292,0.0,0.0,100,0.00,,OVC,0.00,WeatherDisplay:10.37,2013-10-28 03:30:00,
2013-10-27 23:35:00,45.0,45.0,29.39,WNW,292,0.0,0.0,100,0.00,,OVC,0.00,WeatherDisplay:10.37,2013-10-28 03:35:00,
2013-10-27 23:40:00,45.0,45.0,29.39,WNW,292,0.0,0.0,100,0.00,,OVC,0.00,WeatherDisplay:10.37,2013-10-28 03:40:00,
2013-10-27 23:45:00,45.0,45.0,29.39,WNW,292,0.0,0.0,100,0.00,,OVC,0.00,WeatherDisplay:10.37,2013-10-28 03:45:00,
2013-10-27 23:50:00,46.0,46.0,29.39,WNW,292,0.0,0.0,100,0.00,,OVC,0.00,WeatherDisplay:10.37,2013-10-28 03:50:00,
2013-10-27 23:55:00,46.0,46.0,29.39,WNW,292,0.0,0.0,100,0.00,,OVC,0.00,WeatherDisplay:10.37,2013-10-28 03:55:00,